Terminal Aerodrome Forecast
Issued by NWS Charleston, WV

Current Version | Previous Version | Graphics & Text | Print | Product List | Glossary On
Versions: 1 2 3 4 5 6 7 8 9 10 11 12 13 14 15 16 17 18 19 20 21 22
000
FTUS41 KRLX 081700
TAFHTS
TAF
KHTS 081740Z 0818/0918 23014G21KT P6SM VCTS BKN040CB
     FM081900 24013G20KT 5SM +SHRA VCTS BKN045CB
     FM082100 23010G16KT P6SM VCTS OVC045CB
     FM082300 23010KT P6SM BKN050
     FM090800 23003KT 4SM BR SCT070
     FM091400 24007KT P6SM SCT060=

USA.gov is the U.S. government's official web portal to all federal, state and local government web resources and services.